Terminal Aerodrome Forecast
Issued by NWS Paducah, KY

Home | Current Version | Previous Version | Text Only | Print | Product List | Glossary On
Versions: 1 2 3 4 5 6 7 8 9 10 11 12 13 14 15 16 17 18 19 20 21 22 23 24 25 26 27 28 29
085
FTUS43 KPAH 182320
TAFEVV
TAF
KEVV 182320Z 1900/1924 14007KT P6SM SCT070 BKN150
     FM190300 15008KT P6SM SCT050 BKN070
     FM190600 18008KT P6SM VCSH SCT025 OVC050
     FM190900 19010KT 4SM -SHRA BR SCT008 OVC025
      TEMPO 1909/1911 2SM SHRA BR BKN008
     FM191300 19013G21KT P6SM BKN012
     FM191600 20015G25KT P6SM BKN030=

USA.gov is the U.S. government's official web portal to all federal, state and local government web resources and services.